Pagina principale
METAR-TAF:

METAR-TAF

Aeroporti :

Aeroporto di Ginevra-Cointrin

Ginevra, Svizzera

latitudine: 46-15N, longitudine: 006-08E, altezza: 420 m

Osservazione

Il bollettino è stato emesso 30 minuti fa, alle 05:50 UTC
Vento 1 kt da direzioni variabili
Temperature 24°C
Umidità 69%
Pressione 1024 hPa
Visibilità 10 km o più
nessuna nube inferiore a 1500 m e nessun cumulonembo

METAR: LSGG 270550Z VRB01KT CAVOK 24/18 Q1024 NOSIG

Ora: 08:20 (06:20 UTC)

Previsione

Il bollettino è stato emesso 55 minuti fa, alle 05:25 UTC
Previsione valida dal 27 alle 06 UTC al 28 alle 12 UTC
Vento 5 kt da nord-est
Visibilità 10 km o più
nessuna nube inferiore a 1500 m e nessun cumulonembo

TAF: LSGG 270525Z 2706/2812 05005KT CAVOK TX34/2715Z TN24/2706Z TN20/2802Z

Osservazioni e previsioni meteorologiche di più di 4000 aeroporti (messaggi METAR e TAF).

Le stazioni disponibili sono rappresentate dai dischi gialli e rossi sulla carta.

Puntare il mouse per vedere il nome della stazione.

Clicca sopra per visualizzare le osservazioni e previsioni meteorologiche.

Per cambiare la mappa : fare clic sui pulsanti verdi con una croce nera per ingrandire, il pulsante verde con un trattino per diminuire, o sulla freccia verde per le mappe adiacenti.


METAR-TAF: